createdAt,value
2022-11-28T00:01:06.908Z,6.20
2022-11-28T00:03:33.681Z,6.53
2022-11-28T00:06:05.656Z,6.37
2022-11-28T00:08:33.456Z,6.77
2022-11-28T00:11:07.845Z,6.40
2022-11-28T00:13:36.176Z,6.70
2022-11-28T00:16:07.431Z,6.60
2022-11-28T00:18:34.446Z,6.80
2022-11-28T00:21:10.112Z,6.80
2022-11-28T00:23:37.376Z,6.30
2022-11-28T00:26:14.077Z,6.63
2022-11-28T00:28:40.735Z,6.63
2022-11-28T00:31:12.809Z,6.00
2022-11-28T00:33:39.577Z,6.53
2022-11-28T00:36:06.698Z,6.23
2022-11-28T00:38:33.211Z,6.53
2022-11-28T00:41:03.253Z,6.10
2022-11-28T00:43:30.104Z,6.40
2022-11-28T00:45:56.895Z,6.53
2022-11-28T00:48:24.097Z,5.67
2022-11-28T00:50:50.776Z,5.80
2022-11-28T00:53:17.467Z,5.47
2022-11-28T00:55:43.955Z,5.93
2022-11-28T00:58:10.445Z,5.67
2022-11-28T01:00:37.841Z,6.20
2022-11-28T01:03:04.632Z,5.93
2022-11-28T01:05:31.134Z,6.07
2022-11-28T01:07:57.697Z,6.03
2022-11-28T01:10:24.186Z,5.10
2022-11-28T01:12:50.695Z,5.80
2022-11-28T01:15:17.447Z,6.03
2022-11-28T01:17:44.704Z,5.83
2022-11-28T01:20:12.050Z,5.67
2022-11-28T01:22:38.600Z,5.73
2022-11-28T01:25:05.552Z,5.97
2022-11-28T01:27:32.136Z,5.53
2022-11-28T01:29:58.579Z,5.93
2022-11-28T01:32:25.054Z,6.20
2022-11-28T01:34:51.652Z,5.83
2022-11-28T01:37:18.360Z,5.50
2022-11-28T01:39:44.819Z,6.07
2022-11-28T01:42:20.874Z,6.10
2022-11-28T01:44:50.282Z,5.90
2022-11-28T01:47:21.974Z,5.60
2022-11-28T01:49:50.379Z,5.90
2022-11-28T01:52:19.443Z,5.93
2022-11-28T01:54:50.871Z,6.67
2022-11-28T01:57:22.311Z,6.03
2022-11-28T02:00:09.809Z,5.93
2022-11-28T02:02:46.553Z,5.83
2022-11-28T02:05:13.836Z,5.87
2022-11-28T02:07:41.201Z,6.13
2022-11-28T02:10:10.745Z,5.70
2022-11-28T02:13:13.894Z,5.87
2022-11-28T02:15:52.515Z,5.70
2022-11-28T02:18:41.200Z,6.10
2022-11-28T02:21:24.978Z,6.67
2022-11-28T02:24:23.814Z,5.80
2022-11-28T02:27:09.244Z,6.30
2022-11-28T02:30:04.425Z,6.20
2022-11-28T02:32:44.963Z,5.87
2022-11-28T02:35:21.014Z,5.80
2022-11-28T02:38:00.006Z,5.93
2022-11-28T02:40:48.782Z,5.77
2022-11-28T02:43:31.645Z,5.63
2022-11-28T02:46:06.865Z,5.40
2022-11-28T02:48:43.858Z,5.57
2022-11-28T02:51:21.919Z,5.70
2022-11-28T02:53:50.865Z,5.87
2022-11-28T02:56:17.862Z,6.03
2022-11-28T02:58:44.461Z,6.03
2022-11-28T03:01:19.694Z,5.60
2022-11-28T03:04:25.107Z,6.40
2022-11-28T03:07:03.900Z,6.47
2022-11-28T03:09:53.749Z,5.47
2022-11-28T03:12:44.204Z,6.00
2022-11-28T03:15:15.649Z,5.87
2022-11-28T03:17:47.872Z,5.63
2022-11-28T03:20:28.987Z,5.80
2022-11-28T03:23:19.613Z,6.13
2022-11-28T03:25:54.891Z,5.73
2022-11-28T03:28:45.342Z,5.80
2022-11-28T03:31:17.491Z,5.47
2022-11-28T03:33:49.234Z,5.70
2022-11-28T03:36:21.176Z,5.83
2022-11-28T03:38:51.026Z,5.43
2022-11-28T03:41:25.432Z,5.60
2022-11-28T03:43:56.546Z,6.30
2022-11-28T03:46:31.634Z,6.40
2022-11-28T03:48:59.788Z,5.13
2022-11-28T03:51:37.453Z,5.20
2022-11-28T03:54:08.066Z,5.57
2022-11-28T03:56:54.772Z,5.43
2022-11-28T03:59:44.319Z,6.10
2022-11-28T04:02:19.747Z,5.80
2022-11-28T04:04:55.350Z,5.80
2022-11-28T04:07:42.730Z,5.57
2022-11-28T04:10:27.084Z,5.87
2022-11-28T04:13:12.212Z,5.70
2022-11-28T04:15:50.844Z,5.87
2022-11-28T04:18:21.510Z,6.20
2022-11-28T04:20:53.573Z,5.33
2022-11-28T04:23:22.191Z,5.60
2022-11-28T04:26:02.792Z,5.23
2022-11-28T04:28:33.203Z,6.07
2022-11-28T04:31:02.819Z,5.07
2022-11-28T04:33:34.581Z,5.30
2022-11-28T04:36:03.266Z,5.60
2022-11-28T04:38:32.089Z,5.60
2022-11-28T04:41:08.276Z,5.60
2022-11-28T04:43:39.304Z,5.70
2022-11-28T04:46:16.350Z,5.33
2022-11-28T04:48:43.543Z,5.60
2022-11-28T04:51:21.763Z,5.83
2022-11-28T04:54:09.917Z,5.73
2022-11-28T04:56:57.999Z,4.97
2022-11-28T04:59:26.821Z,5.77
2022-11-28T05:01:54.351Z,5.27
2022-11-28T05:04:21.576Z,6.20
2022-11-28T05:06:48.110Z,5.37
2022-11-28T05:09:14.756Z,5.47
2022-11-28T05:11:41.364Z,5.27
2022-11-28T05:14:08.314Z,5.23
2022-11-28T05:16:35.136Z,5.53
2022-11-28T05:19:02.196Z,5.00
2022-11-28T05:21:28.747Z,5.90
2022-11-28T05:23:55.198Z,5.90
2022-11-28T05:26:21.670Z,5.40
2022-11-28T05:28:50.956Z,6.03
2022-11-28T05:31:20.545Z,6.23
2022-11-28T05:33:47.231Z,5.87
2022-11-28T05:36:15.164Z,6.10
2022-11-28T05:38:42.458Z,5.90
2022-11-28T05:41:09.704Z,6.17
2022-11-28T05:43:36.739Z,5.77
2022-11-28T05:46:06.042Z,5.93
2022-11-28T05:48:32.774Z,6.27
2022-11-28T05:50:59.336Z,6.37
2022-11-28T05:53:25.986Z,5.70
2022-11-28T05:55:52.489Z,6.10
2022-11-28T05:58:18.939Z,6.30
2022-11-28T06:00:45.459Z,6.20
2022-11-28T06:03:12.055Z,6.10
2022-11-28T06:05:43.230Z,6.53
2022-11-28T06:08:12.421Z,6.17
2022-11-28T06:10:39.177Z,6.03
2022-11-28T06:13:06.298Z,6.10
2022-11-28T06:15:37.517Z,6.43
2022-11-28T06:18:04.917Z,6.03
2022-11-28T06:20:31.504Z,6.20
2022-11-28T06:22:57.948Z,5.93
2022-11-28T06:25:24.686Z,6.10
2022-11-28T06:27:51.292Z,6.13
2022-11-28T06:30:18.313Z,5.70
2022-11-28T06:32:44.882Z,5.63
2022-11-28T06:35:11.684Z,5.83
2022-11-28T06:37:38.396Z,5.37
2022-11-28T06:40:05.994Z,5.03
2022-11-28T06:42:36.548Z,5.87
2022-11-28T06:45:07.963Z,6.30
2022-11-28T06:47:34.596Z,6.20
2022-11-28T06:50:03.997Z,6.03
2022-11-28T06:52:30.644Z,6.00
2022-11-28T06:54:57.060Z,6.37
2022-11-28T06:57:23.806Z,6.20
2022-11-28T06:59:50.673Z,5.70
2022-11-28T07:02:17.443Z,5.67
2022-11-28T07:04:44.030Z,5.77
2022-11-28T07:07:15.045Z,6.20
2022-11-28T07:09:43.138Z,5.90
2022-11-28T07:12:10.143Z,5.63
2022-11-28T07:14:36.712Z,6.27
2022-11-28T07:17:04.900Z,5.47
2022-11-28T07:19:31.410Z,5.13
2022-11-28T07:21:57.899Z,5.87
2022-11-28T07:24:24.456Z,6.73
2022-11-28T07:26:50.944Z,6.23
2022-11-28T07:29:19.031Z,5.87
2022-11-28T07:31:45.596Z,5.97
2022-11-28T07:34:12.761Z,6.00
2022-11-28T07:36:39.221Z,6.57
2022-11-28T07:39:08.631Z,6.83
2022-11-28T07:41:36.063Z,6.40
2022-11-28T07:44:04.223Z,6.67
2022-11-28T07:46:31.900Z,7.33
2022-11-28T07:48:58.470Z,6.33
2022-11-28T07:51:27.982Z,6.80
2022-11-28T07:53:54.909Z,6.90
2022-11-28T07:56:24.806Z,7.30
2022-11-28T07:58:51.572Z,6.63
2022-11-28T08:01:23.951Z,6.60
2022-11-28T08:03:52.050Z,7.30
2022-11-28T08:06:21.422Z,6.30
2022-11-28T08:08:48.690Z,6.47
2022-11-28T08:11:18.342Z,6.70
2022-11-28T08:13:45.663Z,6.90
2022-11-28T08:16:18.948Z,7.07
2022-11-28T08:18:46.694Z,6.93
2022-11-28T08:21:16.455Z,7.13
2022-11-28T08:23:45.319Z,7.30
2022-11-28T08:26:14.355Z,6.50
2022-11-28T08:28:41.875Z,6.53
2022-11-28T08:31:13.151Z,6.90
2022-11-28T08:33:40.323Z,7.10
2022-11-28T08:36:08.435Z,6.67
2022-11-28T08:38:35.488Z,7.80
2022-11-28T08:41:04.573Z,7.23
2022-11-28T08:43:31.526Z,7.03
2022-11-28T08:45:58.057Z,7.33
2022-11-28T08:48:24.586Z,6.47
2022-11-28T08:50:51.068Z,6.60
2022-11-28T08:53:18.631Z,6.93
2022-11-28T08:55:45.263Z,7.40
2022-11-28T08:58:12.878Z,6.83
2022-11-28T09:00:40.320Z,7.30
2022-11-28T09:03:06.827Z,7.70
2022-11-28T09:05:33.381Z,7.90
2022-11-28T09:07:59.939Z,7.33
2022-11-28T09:10:26.510Z,8.07
2022-11-28T09:12:53.000Z,7.23
2022-11-28T09:15:19.844Z,7.77
2022-11-28T09:17:46.617Z,7.63
2022-11-28T09:20:13.350Z,6.97
2022-11-28T09:22:40.724Z,7.23
2022-11-28T09:25:07.904Z,8.37
2022-11-28T09:27:34.401Z,7.97
2022-11-28T09:30:00.855Z,7.67
2022-11-28T09:32:27.284Z,6.87
2022-11-28T09:34:53.840Z,7.10
2022-11-28T09:37:20.298Z,7.17
2022-11-28T09:40:11.385Z,7.13
2022-11-28T09:42:43.682Z,7.57
2022-11-28T09:45:19.407Z,7.93
2022-11-28T09:47:50.364Z,7.33
2022-11-28T09:50:24.563Z,7.33
2022-11-28T09:53:01.760Z,7.90
2022-11-28T09:55:49.846Z,7.37
2022-11-28T09:58:26.738Z,7.70
2022-11-28T10:00:55.930Z,7.73
2022-11-28T10:03:37.671Z,7.70
2022-11-28T10:06:31.126Z,7.60
2022-11-28T10:09:19.554Z,8.53
2022-11-28T10:12:00.928Z,8.20
2022-11-28T10:15:06.075Z,8.30
2022-11-28T10:18:00.783Z,7.90
2022-11-28T10:20:31.267Z,6.90
2022-11-28T10:23:04.821Z,7.90
2022-11-28T10:25:42.668Z,8.03
2022-11-28T10:28:16.655Z,8.50
2022-11-28T10:30:48.852Z,7.90
2022-11-28T10:33:26.797Z,8.10
2022-11-28T10:35:59.580Z,8.20
2022-11-28T10:38:27.952Z,8.40
2022-11-28T10:41:17.120Z,7.93
2022-11-28T10:43:59.500Z,8.40
2022-11-28T10:46:44.596Z,7.53
2022-11-28T10:49:20.292Z,7.30
2022-11-28T10:51:58.525Z,7.73
2022-11-28T10:54:46.558Z,7.83
2022-11-28T10:57:24.002Z,8.10
2022-11-28T11:00:03.557Z,7.70
2022-11-28T11:02:48.561Z,8.23
2022-11-28T11:05:21.751Z,11.93
2022-11-28T11:07:51.978Z,7.93
2022-11-28T11:10:36.826Z,7.97
2022-11-28T11:13:26.353Z,8.60
2022-11-28T11:16:06.320Z,8.20
2022-11-28T11:18:51.005Z,8.37
2022-11-28T11:21:22.771Z,8.40
2022-11-28T11:24:01.099Z,7.80
2022-11-28T11:26:33.915Z,8.70
2022-11-28T11:29:02.375Z,7.60
2022-11-28T11:31:43.091Z,7.77
2022-11-28T11:34:18.565Z,7.83
2022-11-28T11:36:45.915Z,7.80
2022-11-28T11:39:15.050Z,7.70
2022-11-28T11:41:44.447Z,7.93
2022-11-28T11:44:13.644Z,7.70
2022-11-28T11:47:05.732Z,8.47
2022-11-28T11:49:38.173Z,7.73
2022-11-28T11:52:15.131Z,7.50
2022-11-28T11:54:47.322Z,8.33
2022-11-28T11:57:32.601Z,8.10
2022-11-28T12:00:18.326Z,8.00
2022-11-28T12:02:55.508Z,7.53
2022-11-28T12:05:46.423Z,8.17
2022-11-28T12:08:34.808Z,7.73
2022-11-28T12:11:26.039Z,8.03
2022-11-28T12:13:52.906Z,8.30
2022-11-28T12:16:51.864Z,8.30
2022-11-28T12:19:46.047Z,8.13
2022-11-28T12:22:30.644Z,8.03
2022-11-28T12:25:26.276Z,8.03
2022-11-28T12:28:17.835Z,8.50
2022-11-28T12:31:21.807Z,8.80
2022-11-28T12:34:13.444Z,8.60
2022-11-28T12:37:05.111Z,8.50
2022-11-28T12:39:39.679Z,8.10
2022-11-28T12:42:29.230Z,8.57
2022-11-28T12:45:19.757Z,7.83
2022-11-28T12:47:56.386Z,8.43
2022-11-28T12:50:42.494Z,9.13
2022-11-28T12:53:47.663Z,8.30
2022-11-28T12:56:42.227Z,7.93
2022-11-28T12:59:31.448Z,8.57
2022-11-28T13:02:18.878Z,7.83
2022-11-28T13:05:19.685Z,8.47
2022-11-28T13:07:48.936Z,9.33
2022-11-28T13:11:03.347Z,9.03
2022-11-28T13:13:39.723Z,9.70
2022-11-28T13:16:34.997Z,8.53
2022-11-28T13:19:08.914Z,8.70
2022-11-28T13:21:43.836Z,8.97
2022-11-28T13:24:23.312Z,8.17
2022-11-28T13:27:17.191Z,8.43
2022-11-28T13:29:47.143Z,8.57
2022-11-28T13:32:28.512Z,8.60
2022-11-28T13:34:56.063Z,9.50
2022-11-28T13:40:38.132Z,10.53
2022-11-28T13:43:23.205Z,9.50
2022-11-28T13:45:52.535Z,8.70
2022-11-28T13:49:06.150Z,8.40
2022-11-28T13:51:32.054Z,8.93
2022-11-28T13:54:17.178Z,8.97
2022-11-28T13:56:46.223Z,8.80
2022-11-28T13:59:22.877Z,8.67
2022-11-28T14:02:32.929Z,9.27
2022-11-28T14:05:00.091Z,8.33
2022-11-28T14:07:33.394Z,8.67
2022-11-28T14:10:27.320Z,8.90
2022-11-28T14:13:23.032Z,9.57
2022-11-28T14:16:04.784Z,8.87
2022-11-28T14:18:57.751Z,9.23
2022-11-28T14:21:30.548Z,9.70
2022-11-28T14:24:29.665Z,9.07
2022-11-28T14:27:01.031Z,9.20
2022-11-28T14:29:39.281Z,9.50
2022-11-28T14:32:28.942Z,8.53
2022-11-28T14:34:54.170Z,8.60
2022-11-28T14:37:21.255Z,8.97
2022-11-28T14:39:50.336Z,8.50
2022-11-28T14:42:43.825Z,8.60
2022-11-28T14:45:32.978Z,8.53
2022-11-28T14:48:18.596Z,9.03
2022-11-28T14:50:49.427Z,8.90
2022-11-28T14:53:42.364Z,8.60
2022-11-28T14:56:15.349Z,8.43
2022-11-28T14:58:50.084Z,9.03
2022-11-28T15:01:43.035Z,8.47
2022-11-28T15:04:33.918Z,9.47
2022-11-28T15:07:03.990Z,9.27
2022-11-28T15:09:38.219Z,9.07
2022-11-28T15:12:33.490Z,9.30
2022-11-28T15:15:00.296Z,8.87
2022-11-28T15:17:33.237Z,8.37
2022-11-28T15:20:27.805Z,9.70
2022-11-28T15:22:55.123Z,10.03
2022-11-28T15:25:26.263Z,9.77
2022-11-28T15:27:55.315Z,9.90
2022-11-28T15:30:28.924Z,10.27
2022-11-28T15:33:02.645Z,10.03
2022-11-28T15:35:29.227Z,10.97
2022-11-28T15:37:58.411Z,11.23
2022-11-28T15:40:31.180Z,10.20
2022-11-28T15:43:00.133Z,10.00
2022-11-28T15:45:33.016Z,10.23
2022-11-28T15:48:00.416Z,9.90
2022-11-28T15:50:30.122Z,10.30
2022-11-28T15:53:18.841Z,10.53
2022-11-28T15:55:46.096Z,11.30
2022-11-28T15:58:31.658Z,10.53
2022-11-28T16:01:05.433Z,9.40
2022-11-28T16:03:46.177Z,10.00
2022-11-28T16:06:12.825Z,10.07
2022-11-28T16:08:48.147Z,10.40
2022-11-28T16:11:19.709Z,9.63
2022-11-28T16:13:47.200Z,9.77
2022-11-28T16:16:23.918Z,9.73
2022-11-28T16:19:02.700Z,9.83
2022-11-28T16:21:36.072Z,9.80
2022-11-28T16:24:04.900Z,9.27
2022-11-28T16:26:36.780Z,10.17
2022-11-28T16:29:05.946Z,10.70
2022-11-28T16:31:33.780Z,10.50
2022-11-28T16:34:03.298Z,10.30
2022-11-28T16:36:30.955Z,9.93
2022-11-28T16:39:24.096Z,10.50
2022-11-28T16:41:54.615Z,10.30
2022-11-28T16:44:24.921Z,10.00
2022-11-28T16:46:57.308Z,9.77
2022-11-28T16:49:37.517Z,9.90
2022-11-28T16:52:22.035Z,11.20
2022-11-28T16:54:49.921Z,10.83
2022-11-28T16:57:16.902Z,11.33
2022-11-28T16:59:44.587Z,11.00
2022-11-28T17:02:18.953Z,11.20
2022-11-28T17:04:47.983Z,11.13
2022-11-28T17:07:17.177Z,11.50
2022-11-28T17:09:46.727Z,12.40
2022-11-28T17:12:27.339Z,12.23
2022-11-28T17:14:54.889Z,10.73
2022-11-28T17:17:26.143Z,11.80
2022-11-28T17:19:52.794Z,11.67
2022-11-28T17:22:22.956Z,10.90
2022-11-28T17:24:50.080Z,11.60
2022-11-28T17:27:16.837Z,10.30
2022-11-28T17:29:44.275Z,11.47
2022-11-28T17:32:13.368Z,10.57
2022-11-28T17:34:42.047Z,10.67
2022-11-28T17:37:09.372Z,11.47
2022-11-28T17:39:35.875Z,11.60
2022-11-28T17:42:02.654Z,11.20
2022-11-28T17:44:31.888Z,11.87
2022-11-28T17:47:01.014Z,11.30
2022-11-28T17:49:28.897Z,11.70
2022-11-28T17:51:56.694Z,11.07
2022-11-28T17:54:25.955Z,11.50
2022-11-28T17:56:53.342Z,11.30
2022-11-28T17:59:22.585Z,11.50
2022-11-28T18:01:49.689Z,11.93
2022-11-28T18:04:22.796Z,10.57
2022-11-28T18:06:49.762Z,11.57
2022-11-28T18:09:16.282Z,11.67
2022-11-28T18:11:43.465Z,11.40
2022-11-28T18:14:10.477Z,11.67
2022-11-28T18:16:39.556Z,12.30
2022-11-28T18:19:06.907Z,12.43
2022-11-28T18:21:33.825Z,14.87
2022-11-28T18:24:00.707Z,13.70
2022-11-28T18:26:27.772Z,14.20
2022-11-28T18:28:54.610Z,13.63
2022-11-28T18:31:25.221Z,13.00
2022-11-28T18:33:56.174Z,12.30
2022-11-28T18:36:27.583Z,13.00
2022-11-28T18:39:02.373Z,11.70
2022-11-28T18:41:30.188Z,11.47
2022-11-28T18:44:04.623Z,11.17
2022-11-28T18:46:33.236Z,10.40
2022-11-28T18:49:00.952Z,11.83
2022-11-28T18:51:34.901Z,11.13
2022-11-28T18:54:05.545Z,11.10
2022-11-28T18:56:33.939Z,11.23
2022-11-28T18:59:00.583Z,11.27
2022-11-28T19:01:30.896Z,10.30
2022-11-28T19:03:59.074Z,11.13
2022-11-28T19:06:26.465Z,11.50
2022-11-28T19:08:54.992Z,11.67
2022-11-28T19:11:23.082Z,11.03
2022-11-28T19:13:51.613Z,11.50
2022-11-28T19:16:20.727Z,11.80
2022-11-28T19:18:48.048Z,11.47
2022-11-28T19:21:18.732Z,12.37
2022-11-28T19:23:47.124Z,12.67
2022-11-28T19:26:15.873Z,12.40
2022-11-28T19:28:43.189Z,11.47
2022-11-28T19:31:15.701Z,11.97
2022-11-28T19:33:44.068Z,12.53
2022-11-28T19:36:12.777Z,12.97
2022-11-28T19:38:40.306Z,12.73
2022-11-28T19:41:11.794Z,13.23
2022-11-28T19:43:38.966Z,13.63
2022-11-28T19:46:06.911Z,14.43
2022-11-28T19:48:35.458Z,13.03
2022-11-28T19:51:04.069Z,14.50
2022-11-28T19:53:32.231Z,15.70
2022-11-28T19:56:13.531Z,14.70
2022-11-28T19:58:41.027Z,14.03
2022-11-28T20:01:15.716Z,13.83
2022-11-28T20:03:43.231Z,12.97
2022-11-28T20:06:16.733Z,14.13
2022-11-28T20:08:43.822Z,14.03
2022-11-28T20:11:34.234Z,13.40
2022-11-28T20:14:11.206Z,13.13
2022-11-28T20:16:39.483Z,12.93
2022-11-28T20:19:07.211Z,13.37
2022-11-28T20:21:34.591Z,13.13
2022-11-28T20:24:05.000Z,13.40
2022-11-28T20:26:36.879Z,13.23
2022-11-28T20:29:03.874Z,13.17
2022-11-28T20:31:33.901Z,12.03
2022-11-28T20:34:02.014Z,13.27
2022-11-28T20:36:31.057Z,13.17
2022-11-28T20:38:58.660Z,13.20
2022-11-28T20:41:27.081Z,12.20
2022-11-28T20:43:53.804Z,13.43
2022-11-28T20:46:27.282Z,13.00
2022-11-28T20:48:57.282Z,13.13
2022-11-28T20:51:25.488Z,14.00
2022-11-28T20:53:53.173Z,14.57
2022-11-28T20:56:25.507Z,14.13
2022-11-28T20:58:52.752Z,15.07
2022-11-28T21:01:24.477Z,14.93
2022-11-28T21:03:51.799Z,14.63
2022-11-28T21:06:19.131Z,14.87
2022-11-28T21:08:46.062Z,14.83
2022-11-28T21:11:30.921Z,14.13
2022-11-28T21:14:02.207Z,14.57
2022-11-28T21:16:31.326Z,15.30
2022-11-28T21:19:07.335Z,14.50
2022-11-28T21:21:34.788Z,14.60
2022-11-28T21:24:04.365Z,15.00
2022-11-28T21:26:33.064Z,15.37
2022-11-28T21:29:07.332Z,14.40
2022-11-28T21:31:36.665Z,15.00
2022-11-28T21:34:03.514Z,15.03
2022-11-28T21:36:31.774Z,15.20
2022-11-28T21:39:00.757Z,14.17
2022-11-28T21:41:31.356Z,14.90
2022-11-28T21:43:59.496Z,14.67
2022-11-28T21:46:26.865Z,15.00
2022-11-28T21:48:53.678Z,15.67
2022-11-28T21:51:24.889Z,15.30
2022-11-28T21:53:52.117Z,14.60
2022-11-28T21:56:19.804Z,15.27
2022-11-28T21:58:46.262Z,15.70
2022-11-28T22:01:14.276Z,15.70
2022-11-28T22:03:43.633Z,15.83
2022-11-28T22:06:16.911Z,16.40
2022-11-28T22:08:44.189Z,15.93
2022-11-28T22:11:13.285Z,15.57
2022-11-28T22:13:45.861Z,15.83
2022-11-28T22:16:18.790Z,16.17
2022-11-28T22:18:46.704Z,16.20
2022-11-28T22:21:50.016Z,15.47
2022-11-28T22:24:02.951Z,15.13
2022-11-28T22:26:29.486Z,15.93
2022-11-28T22:28:58.884Z,15.63
2022-11-28T22:31:25.831Z,15.53
2022-11-28T22:33:52.815Z,15.53
2022-11-28T22:36:21.019Z,15.77
2022-11-28T22:38:49.054Z,15.77
2022-11-28T22:41:24.804Z,14.97
2022-11-28T22:43:56.873Z,14.87
2022-11-28T22:46:23.785Z,15.77
2022-11-28T22:48:51.703Z,14.77
2022-11-28T22:51:21.855Z,15.13
2022-11-28T22:53:53.296Z,15.70
2022-11-28T22:56:19.911Z,15.77
2022-11-28T22:58:46.729Z,15.97
2022-11-28T23:01:18.835Z,16.17
2022-11-28T23:03:46.472Z,16.43
2022-11-28T23:06:19.198Z,16.77
2022-11-28T23:08:46.741Z,16.17
2022-11-28T23:11:16.329Z,15.97
2022-11-28T23:13:44.305Z,14.60
2022-11-28T23:16:19.119Z,15.93
2022-11-28T23:18:48.195Z,14.77
2022-11-28T23:21:15.844Z,15.07
2022-11-28T23:23:44.031Z,16.20
2022-11-28T23:26:16.587Z,14.67
2022-11-28T23:28:43.902Z,15.60
2022-11-28T23:31:14.918Z,14.57
2022-11-28T23:33:41.986Z,15.47
2022-11-28T23:36:15.872Z,14.97
2022-11-28T23:38:43.648Z,15.07
2022-11-28T23:41:11.154Z,14.50
2022-11-28T23:43:37.736Z,14.23
2022-11-28T23:46:05.179Z,14.27
2022-11-28T23:48:32.123Z,15.57
2022-11-28T23:50:59.188Z,15.77
2022-11-28T23:53:26.015Z,14.57
2022-11-28T23:55:52.470Z,15.00
2022-11-28T23:58:19.143Z,15.17
